This is the latest recevied weather packets stored in our database for station/object JE4YKI-13. If no packets are shown the sender has not sent any weather packets the latest 10 day(s).
| Time | Temp. | Humidity | Pressure | Rain* | Wind** | Luminosity | Snow |
|---|---|---|---|---|---|---|---|
| 1777676779 | 15° C | 77% | 1012.5 hPa | 0 mm | - | - | - |
| 1777676178 | 14.44° C | 77% | 1012.4 hPa | 0 mm | - | - | - |
| 1777675578 | 13.89° C | 79% | 1012.2 hPa | 0 mm | - | - | - |
| 1777674978 | 13.89° C | 79% | 1012.2 hPa | 0 mm | - | - | - |
| 1777674386 | 14.44° C | 77% | 1012.2 hPa | 0 mm | - | - | - |
| 1777673777 | 14.44° C | 78% | 1012.2 hPa | 0 mm | - | - | - |
| 1777673176 | 14.44° C | 79% | 1012 hPa | 0 mm | - | - | - |
| 1777672577 | 13.89° C | 82% | 1011.9 hPa | 0 mm | - | - | - |
| 1777671975 | 12.78° C | 85% | 1011.8 hPa | 0 mm | - | - | - |
| 1777671374 | 12.78° C | 86% | 1011.8 hPa | 0 mm | - | - | - |
| 1777670774 | 11.67° C | 91% | 1011.7 hPa | 0 mm | - | - | - |
| 1777670174 | 10.56° C | 92% | 1011.5 hPa | 0 mm | - | - | - |
| 1777669573 | 10.56° C | 93% | 1011.3 hPa | 0 mm | - | - | - |
| 1777668973 | 10° C | 93% | 1011.3 hPa | 0 mm | - | - | - |
| 1777668373 | 10° C | 93% | 1011.2 hPa | 0 mm | - | - | - |
| 1777667772 | 9.44° C | 93% | 1011.1 hPa | 0 mm | - | - | - |
| 1777667172 | 9.44° C | 93% | 1011.1 hPa | 0 mm | - | - | - |
| 1777666572 | 9.44° C | 93% | 1011 hPa | 0 mm | - | - | - |
| 1777665971 | 10° C | 93% | 1010.8 hPa | 0 mm | - | - | - |
| 1777665371 | 10° C | 92% | 1010.8 hPa | 0 mm | - | - | - |
| 1777664771 | 10° C | 92% | 1010.5 hPa | 0 mm | - | - | - |
| 1777664170 | 10° C | 92% | 1010.5 hPa | 0 mm | - | - | - |
| 1777663570 | 10° C | 92% | 1010.4 hPa | 0 mm | - | - | - |
| 1777662969 | 10° C | 92% | 1010.4 hPa | 0 mm | - | - | - |
| 1777662369 | 10° C | 92% | 1010.4 hPa | 0 mm | - | - | - |
* Rain latest hour (hover to see other rain measurements)
** Current wind speed in m/s (hover to see current wind gust speed)